sensor_id;sensor_type;location;lat;lon;timestamp;pressure;altitude;pressure_sealevel;temperature;humidity
4410;BME280;2218;51.408;7.208;2024-02-14T00:00:58;99683.31;;;19.38;37.36
4410;BME280;2218;51.408;7.208;2024-02-14T00:03:24;99681.63;;;19.37;37.46
4410;BME280;2218;51.408;7.208;2024-02-14T00:05:53;99681.63;;;19.37;37.66
4410;BME280;2218;51.408;7.208;2024-02-14T00:08:22;99690.50;;;19.36;37.54
4410;BME280;2218;51.408;7.208;2024-02-14T00:10:49;99683.56;;;19.35;37.46
4410;BME280;2218;51.408;7.208;2024-02-14T00:13:17;99678.38;;;19.34;37.54
4410;BME280;2218;51.408;7.208;2024-02-14T00:15:44;99677.53;;;19.33;37.60
4410;BME280;2218;51.408;7.208;2024-02-14T00:18:13;99669.63;;;19.33;37.71
4410;BME280;2218;51.408;7.208;2024-02-14T00:20:41;99673.22;;;19.32;37.90
4410;BME280;2218;51.408;7.208;2024-02-14T00:23:08;99677.63;;;19.32;37.94
4410;BME280;2218;51.408;7.208;2024-02-14T00:25:36;99670.69;;;19.31;38.03
4410;BME280;2218;51.408;7.208;2024-02-14T00:28:04;99671.53;;;19.31;37.94
4410;BME280;2218;51.408;7.208;2024-02-14T00:30:31;99673.44;;;19.29;37.76
4410;BME280;2218;51.408;7.208;2024-02-14T00:32:58;99663.84;;;19.28;38.05
4410;BME280;2218;51.408;7.208;2024-02-14T00:35:25;99664.66;;;19.29;37.96
4410;BME280;2218;51.408;7.208;2024-02-14T00:37:52;99676.16;;;19.28;38.00
4410;BME280;2218;51.408;7.208;2024-02-14T00:40:19;99670.06;;;19.27;38.10
4410;BME280;2218;51.408;7.208;2024-02-14T00:42:47;99657.84;;;19.26;38.13
4410;BME280;2218;51.408;7.208;2024-02-14T00:45:15;99657.84;;;19.26;37.91
4410;BME280;2218;51.408;7.208;2024-02-14T00:47:42;99663.09;;;19.26;37.91
4410;BME280;2218;51.408;7.208;2024-02-14T00:50:09;99656.16;;;19.25;37.87
4410;BME280;2218;51.408;7.208;2024-02-14T00:52:39;99659.72;;;19.24;38.00
4410;BME280;2218;51.408;7.208;2024-02-14T00:55:07;99658.03;;;19.23;38.17
4410;BME280;2218;51.408;7.208;2024-02-14T00:57:34;99657.19;;;19.23;37.99
4410;BME280;2218;51.408;7.208;2024-02-14T01:00:04;99660.78;;;19.22;38.17
4410;BME280;2218;51.408;7.208;2024-02-14T01:02:32;99659.97;;;19.21;38.00
4410;BME280;2218;51.408;7.208;2024-02-14T01:04:59;99664.38;;;19.21;38.18
4410;BME280;2218;51.408;7.208;2024-02-14T01:07:26;99655.63;;;19.20;38.08
4410;BME280;2218;51.408;7.208;2024-02-14T01:09:53;99653.00;;;19.20;38.26
4410;BME280;2218;51.408;7.208;2024-02-14T01:12:20;99649.63;;;19.18;38.48
4410;BME280;2218;51.408;7.208;2024-02-14T01:14:47;99649.63;;;19.18;38.40
4410;BME280;2218;51.408;7.208;2024-02-14T01:17:15;99649.63;;;19.18;38.46
4410;BME280;2218;51.408;7.208;2024-02-14T01:19:43;99642.66;;;19.17;38.42
4410;BME280;2218;51.408;7.208;2024-02-14T01:22:10;99640.03;;;19.17;38.53
4410;BME280;2218;51.408;7.208;2024-02-14T01:24:37;99639.31;;;19.15;38.55
4410;BME280;2218;51.408;7.208;2024-02-14T01:27:05;99640.16;;;19.16;38.40
4410;BME280;2218;51.408;7.208;2024-02-14T01:29:32;99640.25;;;19.14;38.71
4410;BME280;2218;51.408;7.208;2024-02-14T01:31:59;99639.31;;;19.15;38.62
4410;BME280;2218;51.408;7.208;2024-02-14T01:34:28;99632.44;;;19.13;38.75
4410;BME280;2218;51.408;7.208;2024-02-14T01:36:55;99623.72;;;19.12;38.70
4410;BME280;2218;51.408;7.208;2024-02-14T01:39:22;99623.72;;;19.12;38.79
4410;BME280;2218;51.408;7.208;2024-02-14T01:41:49;99622.03;;;19.11;38.58
4410;BME280;2218;51.408;7.208;2024-02-14T01:44:16;99613.38;;;19.09;38.70
4410;BME280;2218;51.408;7.208;2024-02-14T01:46:44;99623.91;;;19.09;39.06
4410;BME280;2218;51.408;7.208;2024-02-14T01:49:12;99616.13;;;19.07;39.00
4410;BME280;2218;51.408;7.208;2024-02-14T01:51:43;99616.97;;;19.08;38.95
4410;BME280;2218;51.408;7.208;2024-02-14T01:54:12;99616.13;;;19.07;38.94
4410;BME280;2218;51.408;7.208;2024-02-14T01:56:40;99613.59;;;19.06;39.07
4410;BME280;2218;51.408;7.208;2024-02-14T01:59:09;99608.34;;;19.06;39.01
4410;BME280;2218;51.408;7.208;2024-02-14T02:01:36;99613.69;;;19.04;39.05
4410;BME280;2218;51.408;7.208;2024-02-14T02:04:04;99610.22;;;19.04;39.09
4410;BME280;2218;51.408;7.208;2024-02-14T02:06:31;99609.38;;;19.03;39.26
4410;BME280;2218;51.408;7.208;2024-02-14T02:09:01;99607.59;;;19.04;39.34
4410;BME280;2218;51.408;7.208;2024-02-14T02:11:28;99606.88;;;19.02;39.26
4410;BME280;2218;51.408;7.208;2024-02-14T02:13:56;99606.88;;;19.02;39.29
4410;BME280;2218;51.408;7.208;2024-02-14T02:16:23;99603.41;;;19.01;39.32
4410;BME280;2218;51.408;7.208;2024-02-14T02:18:50;99608.66;;;19.01;39.43
4410;BME280;2218;51.408;7.208;2024-02-14T02:21:18;99603.50;;;19.00;39.56
4410;BME280;2218;51.408;7.208;2024-02-14T02:23:50;99607.91;;;18.99;39.40
4410;BME280;2218;51.408;7.208;2024-02-14T02:26:17;99601.81;;;18.99;39.54
4410;BME280;2218;51.408;7.208;2024-02-14T02:28:44;99607.91;;;18.99;39.70
4410;BME280;2218;51.408;7.208;2024-02-14T02:31:11;99601.81;;;18.99;39.61
4410;BME280;2218;51.408;7.208;2024-02-14T02:33:39;99606.22;;;18.98;39.69
4410;BME280;2218;51.408;7.208;2024-02-14T02:36:06;99603.72;;;18.97;39.50
4410;BME280;2218;51.408;7.208;2024-02-14T02:38:35;99601.09;;;18.97;39.66
4410;BME280;2218;51.408;7.208;2024-02-14T02:41:05;99609.94;;;18.96;39.27
4410;BME280;2218;51.408;7.208;2024-02-14T02:43:32;99600.25;;;18.96;40.09
4410;BME280;2218;51.408;7.208;2024-02-14T02:46:00;99608.97;;;18.97;39.63
4410;BME280;2218;51.408;7.208;2024-02-14T02:48:27;99611.63;;;18.97;39.94
4410;BME280;2218;51.408;7.208;2024-02-14T02:50:54;99608.03;;;18.98;39.81
4410;BME280;2218;51.408;7.208;2024-02-14T02:53:20;99611.28;;;19.01;39.73
4410;BME280;2218;51.408;7.208;2024-02-14T02:55:48;99608.53;;;19.03;39.61
4410;BME280;2218;51.408;7.208;2024-02-14T02:58:19;99615.28;;;19.07;39.67
4410;BME280;2218;51.408;7.208;2024-02-14T03:00:46;99621.06;;;19.12;39.54
4410;BME280;2218;51.408;7.208;2024-02-14T03:03:15;99612.97;;;19.15;39.56
4410;BME280;2218;51.408;7.208;2024-02-14T03:05:42;99613.69;;;19.17;39.37
4410;BME280;2218;51.408;7.208;2024-02-14T03:08:11;99611.78;;;19.19;39.56
4410;BME280;2218;51.408;7.208;2024-02-14T03:10:40;99607.25;;;19.21;39.56
4410;BME280;2218;51.408;7.208;2024-02-14T03:13:07;99608.94;;;19.22;39.42
4410;BME280;2218;51.408;7.208;2024-02-14T03:15:38;99603.66;;;19.22;39.45
4410;BME280;2218;51.408;7.208;2024-02-14T03:18:05;99607.91;;;19.25;39.54
4410;BME280;2218;51.408;7.208;2024-02-14T03:20:35;99610.53;;;19.25;39.32
4410;BME280;2218;51.408;7.208;2024-02-14T03:23:02;99615.69;;;19.26;39.57
4410;BME280;2218;51.408;7.208;2024-02-14T03:25:30;99599.88;;;19.26;39.59
4410;BME280;2218;51.408;7.208;2024-02-14T03:27:57;99597.13;;;19.28;39.62
4410;BME280;2218;51.408;7.208;2024-02-14T03:30:24;99601.56;;;19.27;39.52
4410;BME280;2218;51.408;7.208;2024-02-14T03:32:52;99607.66;;;19.28;39.52
4410;BME280;2218;51.408;7.208;2024-02-14T03:35:22;99600.59;;;19.28;39.38
4410;BME280;2218;51.408;7.208;2024-02-14T03:37:49;99587.41;;;19.28;39.49
4410;BME280;2218;51.408;7.208;2024-02-14T03:40:18;99603.22;;;19.28;39.63
4410;BME280;2218;51.408;7.208;2024-02-14T03:42:46;99604.94;;;19.29;39.45
4410;BME280;2218;51.408;7.208;2024-02-14T03:45:13;99604.94;;;19.29;39.49
4410;BME280;2218;51.408;7.208;2024-02-14T03:47:40;99606.63;;;19.30;39.70
4410;BME280;2218;51.408;7.208;2024-02-14T03:50:09;99601.34;;;19.30;39.82
4410;BME280;2218;51.408;7.208;2024-02-14T03:52:36;99612.72;;;19.31;39.83
4410;BME280;2218;51.408;7.208;2024-02-14T03:55:05;99605.66;;;19.31;39.64
4410;BME280;2218;51.408;7.208;2024-02-14T03:57:32;99603.03;;;19.31;39.90
4410;BME280;2218;51.408;7.208;2024-02-14T04:00:01;99606.50;;;19.32;39.92
4410;BME280;2218;51.408;7.208;2024-02-14T04:02:37;99597.75;;;19.31;39.51
4410;BME280;2218;51.408;7.208;2024-02-14T04:05:06;99606.38;;;19.33;39.71
4410;BME280;2218;51.408;7.208;2024-02-14T04:07:34;99602.06;;;19.32;39.65
4410;BME280;2218;51.408;7.208;2024-02-14T04:10:02;99599.44;;;19.32;39.98
4410;BME280;2218;51.408;7.208;2024-02-14T04:12:29;99610.81;;;19.33;39.80
4410;BME280;2218;51.408;7.208;2024-02-14T04:14:56;99606.38;;;19.33;39.78
4410;BME280;2218;51.408;7.208;2024-02-14T04:17:24;99622.19;;;19.33;39.81
4410;BME280;2218;51.408;7.208;2024-02-14T04:19:51;99606.38;;;19.33;40.14
4410;BME280;2218;51.408;7.208;2024-02-14T04:22:18;99612.50;;;19.34;39.93
4410;BME280;2218;51.408;7.208;2024-02-14T04:24:47;99618.63;;;19.34;40.15
4410;BME280;2218;51.408;7.208;2024-02-14T04:27:14;99616.91;;;19.33;39.99
4410;BME280;2218;51.408;7.208;2024-02-14T04:29:45;99617.75;;;19.34;40.11
4410;BME280;2218;51.408;7.208;2024-02-14T04:32:12;99625.56;;;19.35;40.19
4410;BME280;2218;51.408;7.208;2024-02-14T04:34:39;99630.00;;;19.35;40.46
4410;BME280;2218;51.408;7.208;2024-02-14T04:37:07;99624.75;;;19.35;40.42
4410;BME280;2218;51.408;7.208;2024-02-14T04:39:38;99630.84;;;19.35;40.30
4410;BME280;2218;51.408;7.208;2024-02-14T04:42:06;99630.84;;;19.35;40.22
4410;BME280;2218;51.408;7.208;2024-02-14T04:44:33;99627.38;;;19.35;40.46
4410;BME280;2218;51.408;7.208;2024-02-14T04:47:01;99633.47;;;19.35;40.47
4410;BME280;2218;51.408;7.208;2024-02-14T04:49:28;99632.53;;;19.36;40.54
4410;BME280;2218;51.408;7.208;2024-02-14T04:51:55;99635.03;;;19.38;40.39
4410;BME280;2218;51.408;7.208;2024-02-14T04:54:23;99635.03;;;19.38;40.44
4410;BME280;2218;51.408;7.208;2024-02-14T04:56:51;99637.69;;;19.38;40.38
4410;BME280;2218;51.408;7.208;2024-02-14T04:59:19;99635.88;;;19.38;40.57
4410;BME280;2218;51.408;7.208;2024-02-14T05:01:46;99629.78;;;19.38;40.61
4410;BME280;2218;51.408;7.208;2024-02-14T05:04:13;99652.53;;;19.39;40.61
4410;BME280;2218;51.408;7.208;2024-02-14T05:06:42;99652.53;;;19.39;40.88
4410;BME280;2218;51.408;7.208;2024-02-14T05:09:09;99653.41;;;19.40;40.68
4410;BME280;2218;51.408;7.208;2024-02-14T05:11:36;99652.53;;;19.39;41.04
4410;BME280;2218;51.408;7.208;2024-02-14T05:14:03;99655.91;;;19.41;41.01
4410;BME280;2218;51.408;7.208;2024-02-14T05:16:31;99650.66;;;19.41;40.90
4410;BME280;2218;51.408;7.208;2024-02-14T05:18:58;99659.19;;;19.45;41.06
4410;BME280;2218;51.408;7.208;2024-02-14T05:21:26;99665.38;;;19.44;41.21
4410;BME280;2218;51.408;7.208;2024-02-14T05:23:53;99656.56;;;19.45;40.94
4410;BME280;2218;51.408;7.208;2024-02-14T05:26:20;99662.53;;;19.47;41.27
4410;BME280;2218;51.408;7.208;2024-02-14T05:28:47;99667.81;;;19.47;41.22
4410;BME280;2218;51.408;7.208;2024-02-14T05:31:15;99666.84;;;19.48;41.08
4410;BME280;2218;51.408;7.208;2024-02-14T05:33:44;99669.41;;;19.49;41.39
4410;BME280;2218;51.408;7.208;2024-02-14T05:36:11;99672.88;;;19.50;41.42
4410;BME280;2218;51.408;7.208;2024-02-14T05:38:38;99684.16;;;19.52;41.10
4410;BME280;2218;51.408;7.208;2024-02-14T05:41:05;99680.56;;;19.53;41.23
4410;BME280;2218;51.408;7.208;2024-02-14T05:43:33;99674.31;;;19.54;41.45
4410;BME280;2218;51.408;7.208;2024-02-14T05:46:00;99690.91;;;19.56;41.36
4410;BME280;2218;51.408;7.208;2024-02-14T05:48:27;99660.09;;;19.56;41.35
4410;BME280;2218;51.408;7.208;2024-02-14T05:50:56;99648.72;;;19.56;41.62
4410;BME280;2218;51.408;7.208;2024-02-14T05:53:23;99647.75;;;19.57;41.69
4410;BME280;2218;51.408;7.208;2024-02-14T05:55:50;99647.63;;;19.58;41.53
4410;BME280;2218;51.408;7.208;2024-02-14T05:58:17;99638.88;;;19.58;41.29
4410;BME280;2218;51.408;7.208;2024-02-14T06:00:44;99644.94;;;19.60;41.36
4410;BME280;2218;51.408;7.208;2024-02-14T06:03:11;99651.91;;;19.61;41.28
4410;BME280;2218;51.408;7.208;2024-02-14T06:05:38;99647.47;;;19.61;41.32
4410;BME280;2218;51.408;7.208;2024-02-14T06:08:07;99649.25;;;19.61;41.40
4410;BME280;2218;51.408;7.208;2024-02-14T06:10:34;99649.97;;;19.63;41.48
4410;BME280;2218;51.408;7.208;2024-02-14T06:13:01;99643.75;;;19.64;41.08
4410;BME280;2218;51.408;7.208;2024-02-14T06:15:28;99643.66;;;19.66;41.21
4410;BME280;2218;51.408;7.208;2024-02-14T06:17:55;99656.84;;;19.66;41.23
4410;BME280;2218;51.408;7.208;2024-02-14T06:20:23;99659.34;;;19.67;41.12
4410;BME280;2218;51.408;7.208;2024-02-14T06:22:50;99661.16;;;19.67;41.24
4410;BME280;2218;51.408;7.208;2024-02-14T06:25:19;99661.03;;;19.68;41.16
4410;BME280;2218;51.408;7.208;2024-02-14T06:27:46;99658.41;;;19.68;41.02
4410;BME280;2218;51.408;7.208;2024-02-14T06:30:13;99660.13;;;19.69;41.27
4410;BME280;2218;51.408;7.208;2024-02-14T06:32:42;99675.94;;;19.69;41.05
4410;BME280;2218;51.408;7.208;2024-02-14T06:35:09;99677.59;;;19.70;41.27
4410;BME280;2218;51.408;7.208;2024-02-14T06:37:37;99675.81;;;19.71;41.28
4410;BME280;2218;51.408;7.208;2024-02-14T06:40:06;99687.19;;;19.71;41.20
4410;BME280;2218;51.408;7.208;2024-02-14T06:42:35;99686.25;;;19.72;41.15
4410;BME280;2218;51.408;7.208;2024-02-14T06:45:06;99691.50;;;19.72;41.15
4410;BME280;2218;51.408;7.208;2024-02-14T06:47:33;99693.94;;;19.75;41.04
4410;BME280;2218;51.408;7.208;2024-02-14T06:50:00;99684.13;;;19.77;41.32
4410;BME280;2218;51.408;7.208;2024-02-14T06:52:27;99687.50;;;19.79;41.43
4410;BME280;2218;51.408;7.208;2024-02-14T06:54:54;99690.84;;;19.81;41.35
4410;BME280;2218;51.408;7.208;2024-02-14T06:57:21;99698.66;;;19.83;41.66
4410;BME280;2218;51.408;7.208;2024-02-14T06:59:49;99697.59;;;19.85;41.77
4410;BME280;2218;51.408;7.208;2024-02-14T07:02:16;99688.63;;;19.88;41.55
4410;BME280;2218;51.408;7.208;2024-02-14T07:04:43;99689.44;;;19.88;41.67
4410;BME280;2218;51.408;7.208;2024-02-14T07:07:10;99701.72;;;19.90;41.87
4410;BME280;2218;51.408;7.208;2024-02-14T07:09:38;99698.13;;;19.91;41.95
4410;BME280;2218;51.408;7.208;2024-02-14T07:12:06;99702.44;;;19.92;41.70
4410;BME280;2218;51.408;7.208;2024-02-14T07:14:33;99702.44;;;19.92;41.77
4410;BME280;2218;51.408;7.208;2024-02-14T07:17:01;99706.66;;;19.94;41.76
4410;BME280;2218;51.408;7.208;2024-02-14T07:19:28;99702.94;;;19.97;41.81
4410;BME280;2218;51.408;7.208;2024-02-14T07:21:56;99701.97;;;19.98;41.73
4410;BME280;2218;51.408;7.208;2024-02-14T07:24:23;99714.22;;;19.99;41.60
4410;BME280;2218;51.408;7.208;2024-02-14T07:26:50;99714.13;;;20.00;42.06
4410;BME280;2218;51.408;7.208;2024-02-14T07:29:17;99713.16;;;20.01;42.37
4410;BME280;2218;51.408;7.208;2024-02-14T07:31:44;99720.94;;;20.03;42.46
4410;BME280;2218;51.408;7.208;2024-02-14T07:34:12;99723.50;;;20.04;42.65
4410;BME280;2218;51.408;7.208;2024-02-14T07:36:40;99719.78;;;20.07;42.61
4410;BME280;2218;51.408;7.208;2024-02-14T07:39:12;99717.16;;;20.07;42.64
4410;BME280;2218;51.408;7.208;2024-02-14T07:41:39;99721.47;;;20.08;42.95
4410;BME280;2218;51.408;7.208;2024-02-14T07:44:06;99723.88;;;20.11;42.92
4410;BME280;2218;51.408;7.208;2024-02-14T07:46:34;99730.84;;;20.12;43.02
4410;BME280;2218;51.408;7.208;2024-02-14T07:49:01;99727.25;;;20.13;42.81
4410;BME280;2218;51.408;7.208;2024-02-14T07:51:29;99724.59;;;20.13;42.66
4410;BME280;2218;51.408;7.208;2024-02-14T07:54:02;99730.00;;;20.11;42.64
4410;BME280;2218;51.408;7.208;2024-02-14T07:56:29;99727.50;;;20.10;42.45
4410;BME280;2218;51.408;7.208;2024-02-14T07:58:56;99732.75;;;20.10;42.45
4410;BME280;2218;51.408;7.208;2024-02-14T08:01:23;99737.91;;;20.11;42.29
4410;BME280;2218;51.408;7.208;2024-02-14T08:03:50;99729.16;;;20.11;42.27
4410;BME280;2218;51.408;7.208;2024-02-14T08:06:17;99739.72;;;20.11;42.38
4410;BME280;2218;51.408;7.208;2024-02-14T08:08:45;99733.59;;;20.10;42.23
4410;BME280;2218;51.408;7.208;2024-02-14T08:11:14;99745.84;;;20.11;42.36
4410;BME280;2218;51.408;7.208;2024-02-14T08:13:41;99744.88;;;20.12;42.08
4410;BME280;2218;51.408;7.208;2024-02-14T08:16:08;99746.47;;;20.15;42.26
4410;BME280;2218;51.408;7.208;2024-02-14T08:18:35;99744.53;;;20.17;42.40
4410;BME280;2218;51.408;7.208;2024-02-14T08:21:02;99741.78;;;20.19;42.38
4410;BME280;2218;51.408;7.208;2024-02-14T08:23:31;99738.22;;;20.20;42.42
4410;BME280;2218;51.408;7.208;2024-02-14T08:26:01;99742.53;;;20.21;42.60
4410;BME280;2218;51.408;7.208;2024-02-14T08:28:30;99735.59;;;20.20;42.61
4410;BME280;2218;51.408;7.208;2024-02-14T08:30:57;99742.66;;;20.19;42.54
4410;BME280;2218;51.408;7.208;2024-02-14T08:33:24;99743.25;;;20.23;42.83
4410;BME280;2218;51.408;7.208;2024-02-14T08:35:51;99750.22;;;20.24;42.77
4410;BME280;2218;51.408;7.208;2024-02-14T08:38:19;99756.34;;;20.24;42.82
4410;BME280;2218;51.408;7.208;2024-02-14T08:40:46;99749.88;;;20.28;42.89
4410;BME280;2218;51.408;7.208;2024-02-14T08:43:14;99746.31;;;20.29;42.84
4410;BME280;2218;51.408;7.208;2024-02-14T08:45:41;99762.22;;;20.28;43.24
4410;BME280;2218;51.408;7.208;2024-02-14T08:48:10;99757.78;;;20.28;43.14
4410;BME280;2218;51.408;7.208;2024-02-14T08:50:37;99760.94;;;20.33;42.88
4410;BME280;2218;51.408;7.208;2024-02-14T08:53:04;99761.91;;;20.32;43.26
4410;BME280;2218;51.408;7.208;2024-02-14T08:55:32;99762.66;;;20.34;43.01
4410;BME280;2218;51.408;7.208;2024-02-14T08:58:00;99768.84;;;20.33;43.23
4410;BME280;2218;51.408;7.208;2024-02-14T09:00:29;99767.94;;;20.34;43.36
4410;BME280;2218;51.408;7.208;2024-02-14T09:02:57;99771.41;;;20.35;43.58
4410;BME280;2218;51.408;7.208;2024-02-14T09:05:25;99774.22;;;20.45;43.21
4410;BME280;2218;51.408;7.208;2024-02-14T09:07:53;99774.00;;;20.48;43.10
4410;BME280;2218;51.408;7.208;2024-02-14T09:10:21;99773.78;;;20.51;43.04
4410;BME280;2218;51.408;7.208;2024-02-14T09:12:49;99768.53;;;20.51;43.20
4410;BME280;2218;51.408;7.208;2024-02-14T09:15:16;99776.31;;;20.52;43.14
4410;BME280;2218;51.408;7.208;2024-02-14T09:17:45;99771.03;;;20.52;42.92
4410;BME280;2218;51.408;7.208;2024-02-14T09:20:12;99768.31;;;20.54;42.72
4410;BME280;2218;51.408;7.208;2024-02-14T09:22:40;99770.94;;;20.54;42.73
4410;BME280;2218;51.408;7.208;2024-02-14T09:25:08;99775.25;;;20.55;42.88
4410;BME280;2218;51.408;7.208;2024-02-14T09:27:36;99773.34;;;20.57;42.85
4410;BME280;2218;51.408;7.208;2024-02-14T09:30:05;99775.03;;;20.58;42.68
4410;BME280;2218;51.408;7.208;2024-02-14T09:32:33;99776.72;;;20.59;42.61
4410;BME280;2218;51.408;7.208;2024-02-14T09:35:01;99773.13;;;20.60;42.70
4410;BME280;2218;51.408;7.208;2024-02-14T09:37:30;99775.66;;;20.61;42.51
4410;BME280;2218;51.408;7.208;2024-02-14T09:39:57;99784.41;;;20.62;42.54
4410;BME280;2218;51.408;7.208;2024-02-14T09:42:38;99787.03;;;20.62;42.41
4410;BME280;2218;51.408;7.208;2024-02-14T09:45:07;99787.78;;;20.64;42.68
4410;BME280;2218;51.408;7.208;2024-02-14T09:47:39;99781.56;;;20.65;42.25
4410;BME280;2218;51.408;7.208;2024-02-14T09:50:09;99784.19;;;20.65;42.42
4410;BME280;2218;51.408;7.208;2024-02-14T09:52:38;99781.56;;;20.65;42.33
4410;BME280;2218;51.408;7.208;2024-02-14T09:55:09;99780.59;;;20.66;42.17
4410;BME280;2218;51.408;7.208;2024-02-14T09:57:38;99783.94;;;20.68;42.39
4410;BME280;2218;51.408;7.208;2024-02-14T10:00:09;99791.03;;;20.68;42.43
4410;BME280;2218;51.408;7.208;2024-02-14T10:02:36;99789.97;;;20.70;42.00
4410;BME280;2218;51.408;7.208;2024-02-14T10:05:08;99786.50;;;20.70;42.32
4410;BME280;2218;51.408;7.208;2024-02-14T10:07:41;99791.66;;;20.71;42.26
4410;BME280;2218;51.408;7.208;2024-02-14T10:10:09;99796.94;;;20.71;42.11
4410;BME280;2218;51.408;7.208;2024-02-14T10:12:37;99800.28;;;20.73;42.03
4410;BME280;2218;51.408;7.208;2024-02-14T10:15:08;99794.06;;;20.74;42.37
4410;BME280;2218;51.408;7.208;2024-02-14T10:17:35;99795.88;;;20.74;42.10
4410;BME280;2218;51.408;7.208;2024-02-14T10:20:03;99799.22;;;20.76;42.24
4410;BME280;2218;51.408;7.208;2024-02-14T10:22:36;99801.03;;;20.75;42.44
4410;BME280;2218;51.408;7.208;2024-02-14T10:25:05;99803.56;;;20.77;42.19
4410;BME280;2218;51.408;7.208;2024-02-14T10:27:36;99797.31;;;20.78;42.19
4410;BME280;2218;51.408;7.208;2024-02-14T10:30:06;99799.13;;;20.77;42.08
4410;BME280;2218;51.408;7.208;2024-02-14T10:32:35;99794.56;;;20.79;42.24
4410;BME280;2218;51.408;7.208;2024-02-14T10:35:05;99803.44;;;20.78;42.27
4410;BME280;2218;51.408;7.208;2024-02-14T10:37:35;99809.47;;;20.80;42.40
4410;BME280;2218;51.408;7.208;2024-02-14T10:40:04;99806.81;;;20.80;42.12
4410;BME280;2218;51.408;7.208;2024-02-14T10:42:33;99809.34;;;20.82;42.38
4410;BME280;2218;51.408;7.208;2024-02-14T10:45:00;99808.50;;;20.81;42.29
4410;BME280;2218;51.408;7.208;2024-02-14T10:47:32;99811.84;;;20.83;42.07
4410;BME280;2218;51.408;7.208;2024-02-14T10:50:03;99811.84;;;20.83;42.45
4410;BME280;2218;51.408;7.208;2024-02-14T10:52:35;99808.28;;;20.84;42.25
4410;BME280;2218;51.408;7.208;2024-02-14T10:55:05;99809.97;;;20.85;41.98
4410;BME280;2218;51.408;7.208;2024-02-14T10:57:33;99815.25;;;20.85;42.22
4410;BME280;2218;51.408;7.208;2024-02-14T11:00:06;99810.81;;;20.86;41.94
4410;BME280;2218;51.408;7.208;2024-02-14T11:02:35;99805.53;;;20.86;41.99
4410;BME280;2218;51.408;7.208;2024-02-14T11:05:03;99809.00;;;20.86;42.33
4410;BME280;2218;51.408;7.208;2024-02-14T11:07:31;99800.94;;;20.88;42.19
4410;BME280;2218;51.408;7.208;2024-02-14T11:10:06;99807.09;;;20.88;42.24
4410;BME280;2218;51.408;7.208;2024-02-14T11:12:34;99817.66;;;20.88;42.21
4410;BME280;2218;51.408;7.208;2024-02-14T11:15:09;99809.75;;;20.88;42.04
4410;BME280;2218;51.408;7.208;2024-02-14T11:17:37;99806.97;;;20.90;42.27
4410;BME280;2218;51.408;7.208;2024-02-14T11:20:15;99804.34;;;20.90;42.39
4410;BME280;2218;51.408;7.208;2024-02-14T11:22:57;99806.84;;;20.91;42.16
4410;BME280;2218;51.408;7.208;2024-02-14T11:25:31;99808.66;;;20.91;42.19
4410;BME280;2218;51.408;7.208;2024-02-14T11:28:00;99820.06;;;20.91;42.13
4410;BME280;2218;51.408;7.208;2024-02-14T11:30:31;99811.19;;;20.92;42.31
4410;BME280;2218;51.408;7.208;2024-02-14T11:33:16;99806.72;;;20.93;42.04
4410;BME280;2218;51.408;7.208;2024-02-14T11:35:46;99811.19;;;20.92;41.97
4410;BME280;2218;51.408;7.208;2024-02-14T11:38:15;99807.69;;;20.92;42.46
4410;BME280;2218;51.408;7.208;2024-02-14T11:40:44;99813.72;;;20.94;42.37
4410;BME280;2218;51.408;7.208;2024-02-14T11:43:12;99813.72;;;20.94;42.51
4410;BME280;2218;51.408;7.208;2024-02-14T11:45:41;99816.38;;;20.94;42.22
4410;BME280;2218;51.408;7.208;2024-02-14T11:48:10;99814.56;;;20.95;42.30
4410;BME280;2218;51.408;7.208;2024-02-14T11:50:40;99816.25;;;20.96;42.43
4410;BME280;2218;51.408;7.208;2024-02-14T11:53:10;99813.59;;;20.96;42.52
4410;BME280;2218;51.408;7.208;2024-02-14T11:55:38;99817.09;;;20.96;42.55
4410;BME280;2218;51.408;7.208;2024-02-14T11:58:10;99812.63;;;20.97;42.65
4410;BME280;2218;51.408;7.208;2024-02-14T12:00:39;99814.31;;;20.98;42.58
4410;BME280;2218;51.408;7.208;2024-02-14T12:03:10;99804.59;;;20.98;42.75
4410;BME280;2218;51.408;7.208;2024-02-14T12:05:38;99811.69;;;20.98;42.37
4410;BME280;2218;51.408;7.208;2024-02-14T12:08:07;99806.38;;;20.98;42.88
4410;BME280;2218;51.408;7.208;2024-02-14T12:10:35;99806.28;;;20.99;42.87
4410;BME280;2218;51.408;7.208;2024-02-14T12:13:12;99799.22;;;21.00;42.58
4410;BME280;2218;51.408;7.208;2024-02-14T12:15:44;99796.56;;;21.00;42.80
4410;BME280;2218;51.408;7.208;2024-02-14T12:18:11;99789.34;;;21.02;42.85
4410;BME280;2218;51.408;7.208;2024-02-14T12:20:39;99818.28;;;21.03;42.92
4410;BME280;2218;51.408;7.208;2024-02-14T12:23:06;99814.09;;;21.01;42.82
4410;BME280;2218;51.408;7.208;2024-02-14T12:25:34;99811.34;;;21.02;42.79
4410;BME280;2218;51.408;7.208;2024-02-14T12:28:01;99812.16;;;21.03;42.75
4410;BME280;2218;51.408;7.208;2024-02-14T12:30:44;99813.00;;;21.03;43.08
4410;BME280;2218;51.408;7.208;2024-02-14T12:33:13;99821.81;;;21.04;42.92
4410;BME280;2218;51.408;7.208;2024-02-14T12:35:42;99819.16;;;21.04;42.80
4410;BME280;2218;51.408;7.208;2024-02-14T12:38:12;99812.91;;;21.05;42.52
4410;BME280;2218;51.408;7.208;2024-02-14T12:40:41;99815.44;;;21.06;42.92
4410;BME280;2218;51.408;7.208;2024-02-14T12:43:08;99806.66;;;21.06;42.69
4410;BME280;2218;51.408;7.208;2024-02-14T12:45:37;99805.72;;;21.07;42.87
4410;BME280;2218;51.408;7.208;2024-02-14T12:48:06;99812.78;;;21.06;42.56
4410;BME280;2218;51.408;7.208;2024-02-14T12:50:34;99813.63;;;21.07;42.64
4410;BME280;2218;51.408;7.208;2024-02-14T12:53:03;99821.81;;;21.04;43.26
4410;BME280;2218;51.408;7.208;2024-02-14T12:55:30;99828.16;;;21.01;43.27
4410;BME280;2218;51.408;7.208;2024-02-14T12:57:57;99823.00;;;21.00;44.08
4410;BME280;2218;51.408;7.208;2024-02-14T13:00:25;99826.59;;;20.99;44.07
4410;BME280;2218;51.408;7.208;2024-02-14T13:02:53;99824.03;;;20.97;44.24
4410;BME280;2218;51.408;7.208;2024-02-14T13:05:20;99817.94;;;20.97;44.24
4410;BME280;2218;51.408;7.208;2024-02-14T13:07:47;99817.94;;;20.97;44.04
4410;BME280;2218;51.408;7.208;2024-02-14T13:10:14;99816.25;;;20.96;44.29
4410;BME280;2218;51.408;7.208;2024-02-14T13:12:41;99816.25;;;20.96;44.19
4410;BME280;2218;51.408;7.208;2024-02-14T13:15:09;99817.22;;;20.95;44.07
4410;BME280;2218;51.408;7.208;2024-02-14T13:17:36;99810.97;;;20.96;44.30
4410;BME280;2218;51.408;7.208;2024-02-14T13:20:06;99804.00;;;20.95;44.36
4410;BME280;2218;51.408;7.208;2024-02-14T13:22:33;99804.84;;;20.95;44.01
4410;BME280;2218;51.408;7.208;2024-02-14T13:25:00;99808.31;;;20.96;44.09
4410;BME280;2218;51.408;7.208;2024-02-14T13:27:30;99810.13;;;20.95;44.00